Terminal Aerodrome Forecast
Issued by NWS Binghamton, NY

Home | Current Version | Previous Version | Text Only | Print | Product List | Glossary On
Versions: 1 2 3 4 5 6 7 8 9 10 11 12 13 14 15 16 17 18 19 20 21 22 23 24
000
FTUS41 KBGM 022300
TAFBGM
TAF
KBGM 022337Z 0300/0324 24010KT P6SM BKN040
      TEMPO 0300/0301 31015G30KT 1SM TSRA BR OVC009CB
     FM030100 31008KT P6SM BKN012
     FM030300 27005KT P6SM BKN015
     FM030700 27005KT P6SM FEW015 BKN040
     FM031300 30009KT P6SM SCT035=

USA.gov is the U.S. government's official web portal to all federal, state and local government web resources and services.